Time;durP1;ratioP1;P1;durP2;ratioP2;P2;SDS_P1;SDS_P2;PMS_P1;PMS_P2;Temp;Humidity;BMP_temperature;BMP_pressure;BME280_temperature;BME280_humidity;BME280_pressure;Samples;Min_cycle;Max_cycle;Signal;HPM_P1;HPM_P2
2023/01/20 00:01:03;;;;;;;5.67;4.63;;;-0.20;99.90;;;;;;7376552;19;20399;-79
2023/01/20 00:03:28;;;;;;;5.82;5.25;;;-0.10;99.90;;;;;;7378865;19;20404;-77
2023/01/20 00:05:54;;;;;;;6.57;5.43;;;-0.10;99.90;;;;;;7378295;19;20873;-81
2023/01/20 00:08:20;;;;;;;6.43;5.22;;;-0.10;99.90;;;;;;7376648;19;20887;-83
2023/01/20 00:10:45;;;;;;;7.67;5.87;;;-0.10;99.90;;;;;;7377278;19;20337;-82
2023/01/20 00:13:11;;;;;;;7.78;5.38;;;-0.20;99.90;;;;;;7375540;19;20680;-77
2023/01/20 00:15:37;;;;;;;5.97;4.77;;;-0.20;99.90;;;;;;7377707;19;20320;-78
2023/01/20 00:18:02;;;;;;;6.93;4.72;;;-0.20;99.90;;;;;;7377110;19;20446;-80
2023/01/20 00:20:28;;;;;;;5.85;5.22;;;-0.20;99.90;;;;;;7377976;19;20375;-80
2023/01/20 00:22:53;;;;;;;5.60;4.97;;;-0.20;99.90;;;;;;7378367;19;20332;-80
2023/01/20 00:25:19;;;;;;;6.30;5.10;;;-0.20;99.90;;;;;;7376604;19;20678;-80
2023/01/20 00:27:45;;;;;;;5.03;4.43;;;-0.20;99.90;;;;;;7374919;19;20352;-78
2023/01/20 00:30:11;;;;;;;5.07;4.55;;;-0.20;99.90;;;;;;7376289;19;20317;-81
2023/01/20 00:32:43;;;;;;;7.00;5.10;;;-0.20;99.90;;;;;;7378676;19;20313;-82
2023/01/20 00:35:09;;;;;;;5.38;4.88;;;-0.20;99.90;;;;;;7376375;19;20312;-79
2023/01/20 00:37:35;;;;;;;7.05;5.40;;;-0.10;99.90;;;;;;7376374;19;20869;-78
2023/01/20 00:40:00;;;;;;;7.37;5.73;;;-0.10;99.90;;;;;;7378569;19;20317;-80
2023/01/20 00:42:26;;;;;;;6.17;5.30;;;-0.10;99.90;;;;;;7376215;19;20316;-78
2023/01/20 00:44:52;;;;;;;5.93;5.00;;;0.00;99.90;;;;;;7380234;19;20355;-81
2023/01/20 00:47:19;;;;;;;5.97;5.00;;;0.00;99.90;;;;;;7384369;19;20370;-80
2023/01/20 00:49:46;;;;;;;6.75;5.13;;;-0.10;99.90;;;;;;7381442;19;20394;-78
2023/01/20 00:52:11;;;;;;;7.47;5.63;;;-0.10;99.90;;;;;;7383713;19;20325;-81
2023/01/20 00:54:37;;;;;;;5.95;5.10;;;-0.10;99.90;;;;;;7385602;19;20321;-77
2023/01/20 00:57:03;;;;;;;8.27;5.70;;;-0.20;99.90;;;;;;7385264;19;20328;-78
2023/01/20 00:59:28;;;;;;;8.25;6.55;;;-0.20;99.90;;;;;;7382909;19;20309;-77
2023/01/20 01:01:54;;;;;;;5.57;4.60;;;-0.20;99.90;;;;;;7381205;19;20424;-79
2023/01/20 01:04:20;;;;;;;6.47;5.30;;;-0.20;99.90;;;;;;7381856;19;20336;-76
2023/01/20 01:06:45;;;;;;;5.30;4.80;;;-0.20;99.90;;;;;;7383981;19;20341;-80
2023/01/20 01:09:11;;;;;;;6.90;4.90;;;-0.20;99.90;;;;;;7381411;19;20313;-78
2023/01/20 01:11:36;;;;;;;6.60;5.28;;;-0.20;99.90;;;;;;7383841;19;20328;-82
2023/01/20 01:14:02;;;;;;;6.77;5.67;;;-0.20;99.90;;;;;;7383677;19;20344;-78
2023/01/20 01:16:27;;;;;;;5.43;4.90;;;-0.10;99.90;;;;;;7383139;19;20347;-77
2023/01/20 01:18:53;;;;;;;6.00;5.23;;;-0.10;99.90;;;;;;7380848;19;20328;-80
2023/01/20 01:21:19;;;;;;;6.65;5.63;;;-0.10;99.90;;;;;;7382785;19;20319;-80
2023/01/20 01:23:45;;;;;;;6.30;5.50;;;-0.10;99.90;;;;;;7382014;19;20691;-80
2023/01/20 01:26:10;;;;;;;6.60;5.70;;;-0.10;99.90;;;;;;7383151;19;21251;-78
2023/01/20 01:28:36;;;;;;;6.38;5.22;;;-0.10;99.90;;;;;;7381007;19;20328;-78
2023/01/20 01:31:02;;;;;;;5.90;5.27;;;-0.10;99.90;;;;;;7385038;19;20324;-78
2023/01/20 01:33:28;;;;;;;6.53;5.40;;;0.00;99.90;;;;;;7382271;19;20320;-83
2023/01/20 01:35:55;;;;;;;7.88;5.35;;;0.00;99.90;;;;;;7381957;19;21217;-79
2023/01/20 01:38:21;;;;;;;5.37;4.87;;;0.00;99.90;;;;;;7380245;19;20352;-79
2023/01/20 01:40:50;;;;;;;6.75;5.65;;;0.00;99.90;;;;;;7350304;19;20362;-77
2023/01/20 01:43:26;;;;;;;6.05;4.93;;;0.00;99.90;;;;;;7381703;19;20309;-78
2023/01/20 01:45:52;;;;;;;5.20;4.45;;;0.00;99.90;;;;;;7382247;19;20329;-78
2023/01/20 01:48:25;;;;;;;5.80;5.20;;;0.10;99.90;;;;;;7380799;19;20359;-84
2023/01/20 01:50:56;;;;;;;5.47;4.60;;;0.10;99.90;;;;;;7382107;19;20317;-79
2023/01/20 01:53:22;;;;;;;5.97;4.63;;;0.20;99.90;;;;;;7381106;19;20308;-78
2023/01/20 01:55:56;;;;;;;5.60;4.80;;;0.20;99.90;;;;;;7379183;19;20301;-81
2023/01/20 01:58:23;;;;;;;5.25;4.60;;;0.20;99.90;;;;;;7381053;19;20352;-79
2023/01/20 02:00:49;;;;;;;7.07;5.23;;;0.30;99.90;;;;;;7381309;19;20329;-77
2023/01/20 02:03:14;;;;;;;5.22;4.60;;;0.20;99.90;;;;;;7383358;19;20331;-80
2023/01/20 02:05:40;;;;;;;7.60;5.97;;;0.20;99.90;;;;;;7382792;19;20325;-77
2023/01/20 02:08:06;;;;;;;7.97;6.35;;;0.20;99.90;;;;;;7378889;19;20415;-78
2023/01/20 02:10:32;;;;;;;6.38;5.43;;;0.20;99.90;;;;;;7381834;19;20313;-76
2023/01/20 02:12:57;;;;;;;5.77;5.17;;;0.20;99.90;;;;;;7382887;19;20728;-78
2023/01/20 02:15:26;;;;;;;5.30;4.80;;;0.20;99.90;;;;;;7379368;19;20374;-82
2023/01/20 02:17:54;;;;;;;5.28;4.78;;;0.10;99.90;;;;;;7378034;19;20333;-78
2023/01/20 02:20:44;;;;;;;6.32;4.72;;;0.20;99.90;;;;;;7382905;19;20340;-81
2023/01/20 02:23:31;;;;;;;6.05;5.00;;;0.20;99.90;;;;;;7279924;19;2011218;-78
2023/01/20 02:26:16;;;;;;;5.78;5.18;;;0.30;99.90;;;;;;7380780;19;20387;-79
2023/01/20 02:29:29;;;;;;;6.15;5.43;;;0.20;99.90;;;;;;7275257;19;2004226;-79
2023/01/20 02:32:06;;;;;;;5.60;4.90;;;0.20;99.90;;;;;;7275405;19;2004253;-79
2023/01/20 02:34:49;;;;;;;6.47;5.75;;;0.30;99.90;;;;;;7380298;19;20328;-78
2023/01/20 02:37:21;;;;;;;6.28;5.68;;;0.30;99.90;;;;;;7279376;19;2004453;-82
2023/01/20 02:39:50;;;;;;;8.43;6.25;;;0.30;99.90;;;;;;7380473;19;20570;-79
2023/01/20 02:42:22;;;;;;;7.55;6.40;;;0.30;99.90;;;;;;7378753;19;20332;-78
2023/01/20 02:45:07;;;;;;;7.68;6.35;;;0.20;99.90;;;;;;7379528;19;20346;-82
2023/01/20 02:48:04;;;;;;;7.53;6.27;;;0.20;99.90;;;;;;7380897;19;21138;-81
2023/01/20 02:50:45;;;;;;;5.40;4.90;;;0.20;99.90;;;;;;7279657;19;2004755;-80
2023/01/20 02:53:12;;;;;;;5.90;5.30;;;0.20;99.90;;;;;;7277699;19;2004257;-78
2023/01/20 02:55:42;;;;;;;7.53;5.63;;;0.30;99.90;;;;;;7379725;19;20432;-77
2023/01/20 02:58:12;;;;;;;7.00;5.78;;;0.30;99.90;;;;;;7376239;19;20348;-78
2023/01/20 03:00:43;;;;;;;5.93;5.28;;;0.40;99.90;;;;;;7370750;19;20311;-78
2023/01/20 03:03:10;;;;;;;5.82;5.05;;;0.40;99.90;;;;;;7381100;19;20371;-80
2023/01/20 03:05:38;;;;;;;6.75;5.30;;;0.40;99.90;;;;;;7378643;19;20726;-79
2023/01/20 03:08:05;;;;;;;6.07;4.85;;;0.50;99.90;;;;;;7376489;19;20363;-79
2023/01/20 03:10:31;;;;;;;5.72;4.90;;;0.40;99.90;;;;;;7378887;19;20826;-81
2023/01/20 03:12:59;;;;;;;5.65;5.03;;;0.50;99.90;;;;;;7379391;19;20316;-78
2023/01/20 03:15:31;;;;;;;5.63;5.03;;;0.50;99.90;;;;;;7378789;19;20415;-78
2023/01/20 03:17:56;;;;;;;6.90;5.30;;;0.50;99.90;;;;;;7373276;19;20925;-78
2023/01/20 03:20:22;;;;;;;7.80;6.40;;;0.50;99.90;;;;;;7375944;19;20395;-77
2023/01/20 03:22:48;;;;;;;6.60;5.80;;;0.50;99.90;;;;;;7380902;19;20325;-78
2023/01/20 03:25:14;;;;;;;6.15;5.20;;;0.40;99.90;;;;;;7378087;19;20335;-78
2023/01/20 03:27:40;;;;;;;7.18;5.88;;;0.40;99.90;;;;;;7376512;19;20712;-80
2023/01/20 03:30:12;;;;;;;6.82;5.78;;;0.40;99.90;;;;;;7380412;19;20309;-78
2023/01/20 03:32:37;;;;;;;5.80;5.20;;;0.40;99.90;;;;;;7380899;19;20332;-78
2023/01/20 03:35:03;;;;;;;7.07;5.85;;;0.50;99.90;;;;;;7380179;19;20375;-78
2023/01/20 03:37:29;;;;;;;5.75;5.07;;;0.50;99.90;;;;;;7378724;19;20321;-78
2023/01/20 03:39:55;;;;;;;8.40;5.63;;;0.60;99.90;;;;;;7373788;19;20324;-79
2023/01/20 03:42:28;;;;;;;5.72;5.10;;;0.60;99.90;;;;;;7375776;19;20720;-78
2023/01/20 03:45:15;;;;;;;6.85;5.43;;;0.60;99.90;;;;;;7376347;19;20325;-78
2023/01/20 03:47:50;;;;;;;6.38;4.95;;;0.60;99.90;;;;;;7276202;19;2016574;-77
2023/01/20 03:50:41;;;;;;;6.22;5.63;;;0.70;99.90;;;;;;7372078;19;20341;-78
2023/01/20 03:53:12;;;;;;;7.35;5.60;;;0.70;99.90;;;;;;7277604;19;2004566;-76
2023/01/20 03:55:45;;;;;;;8.17;6.83;;;0.80;99.90;;;;;;7378061;19;20799;-79
2023/01/20 03:58:15;;;;;;;8.10;6.82;;;0.80;99.90;;;;;;7375373;19;20384;-78
2023/01/20 04:00:45;;;;;;;10.80;7.43;;;0.70;99.90;;;;;;7378318;19;20321;-77
2023/01/20 04:03:18;;;;;;;10.00;7.05;;;0.60;99.90;;;;;;7378493;19;20325;-77
2023/01/20 04:05:44;;;;;;;6.85;6.15;;;0.60;99.90;;;;;;7382278;19;20328;-78
2023/01/20 04:08:10;;;;;;;7.45;6.38;;;0.70;99.90;;;;;;7374851;19;21103;-79
2023/01/20 04:10:37;;;;;;;10.67;7.23;;;0.70;99.90;;;;;;7379510;19;20325;-78
2023/01/20 04:13:03;;;;;;;10.77;8.80;;;0.70;99.90;;;;;;7381535;19;20312;-80
2023/01/20 04:15:32;;;;;;;9.93;7.77;;;0.70;99.90;;;;;;7379315;19;20308;-79
2023/01/20 04:18:14;;;;;;;11.48;7.72;;;0.70;99.90;;;;;;7377043;19;20324;-81
2023/01/20 04:20:39;;;;;;;8.32;7.15;;;0.60;99.90;;;;;;7283085;19;2004322;-80
2023/01/20 04:23:05;;;;;;;8.73;7.37;;;0.50;99.90;;;;;;7388752;19;20300;-79
2023/01/20 04:25:31;;;;;;;10.17;7.27;;;0.60;99.90;;;;;;7385910;19;20308;-78
2023/01/20 04:27:56;;;;;;;11.32;8.50;;;0.60;99.90;;;;;;7383862;19;20842;-77
2023/01/20 04:30:22;;;;;;;10.03;7.83;;;0.60;99.90;;;;;;7383211;19;20328;-80
2023/01/20 04:32:47;;;;;;;9.65;8.02;;;0.60;99.90;;;;;;7386413;19;20328;-80
2023/01/20 04:35:14;;;;;;;9.10;7.20;;;0.60;99.90;;;;;;7385206;19;20336;-78
2023/01/20 04:37:40;;;;;;;9.93;7.35;;;0.60;99.90;;;;;;7387505;19;20331;-79
2023/01/20 04:40:06;;;;;;;9.53;7.67;;;0.70;99.90;;;;;;7385260;19;20316;-77
2023/01/20 04:42:32;;;;;;;11.02;9.25;;;0.70;99.90;;;;;;7386419;19;20389;-78
2023/01/20 04:44:57;;;;;;;10.80;8.45;;;0.70;99.90;;;;;;7386948;19;20289;-78
2023/01/20 04:47:23;;;;;;;8.77;7.38;;;0.60;99.90;;;;;;7385104;19;21011;-80
2023/01/20 04:49:48;;;;;;;11.57;8.77;;;0.60;99.90;;;;;;7378712;19;20327;-78
2023/01/20 04:52:15;;;;;;;8.85;6.97;;;0.70;99.90;;;;;;7383589;19;20853;-78
2023/01/20 04:54:40;;;;;;;9.00;7.28;;;0.60;99.90;;;;;;7386857;19;20360;-80
2023/01/20 04:57:06;;;;;;;7.80;7.00;;;0.70;99.90;;;;;;7388465;19;20316;-78
2023/01/20 04:59:31;;;;;;;8.45;7.10;;;0.70;99.90;;;;;;7381491;19;20329;-77
2023/01/20 05:01:57;;;;;;;8.77;7.37;;;0.80;99.90;;;;;;7383906;19;20320;-80
2023/01/20 05:04:22;;;;;;;10.32;7.68;;;0.90;99.90;;;;;;7383819;19;20365;-80
2023/01/20 05:06:48;;;;;;;9.43;7.70;;;0.90;99.90;;;;;;7386108;19;20866;-79
2023/01/20 05:09:14;;;;;;;9.70;7.25;;;0.90;99.90;;;;;;7382639;19;20334;-79
2023/01/20 05:11:40;;;;;;;10.07;8.02;;;0.90;99.90;;;;;;7386457;19;20329;-80
2023/01/20 05:14:06;;;;;;;10.20;7.90;;;0.90;99.90;;;;;;7387621;19;20340;-78
2023/01/20 05:16:32;;;;;;;10.60;7.70;;;0.90;99.90;;;;;;7387842;19;20316;-84
2023/01/20 05:18:58;;;;;;;12.88;8.90;;;0.90;99.90;;;;;;7381851;19;20313;-78
2023/01/20 05:21:24;;;;;;;9.30;7.47;;;0.90;99.90;;;;;;7378795;19;20360;-80
2023/01/20 05:23:52;;;;;;;9.37;7.83;;;0.90;99.90;;;;;;7385035;19;20328;-79
2023/01/20 05:26:18;;;;;;;12.85;9.65;;;0.90;99.90;;;;;;7386211;19;20862;-81
2023/01/20 05:28:43;;;;;;;15.97;11.37;;;0.90;99.90;;;;;;7381038;19;20324;-79
2023/01/20 05:31:09;;;;;;;15.48;11.63;;;0.80;99.90;;;;;;7386844;19;20336;-77
2023/01/20 05:33:35;;;;;;;14.13;10.10;;;0.80;99.90;;;;;;7388403;19;20335;-78
2023/01/20 05:36:08;;;;;;;10.70;8.93;;;0.70;99.90;;;;;;7385176;19;20293;-79
2023/01/20 05:38:34;;;;;;;9.13;7.68;;;0.70;99.90;;;;;;7383498;19;20396;-79
2023/01/20 05:41:00;;;;;;;11.07;7.97;;;0.70;99.90;;;;;;7384361;19;20321;-78
2023/01/20 05:43:26;;;;;;;10.85;8.50;;;0.80;99.90;;;;;;7383598;19;20437;-79
2023/01/20 05:45:51;;;;;;;9.88;7.47;;;0.80;99.90;;;;;;7386123;19;20941;-81
2023/01/20 05:48:17;;;;;;;8.23;7.20;;;0.70;99.90;;;;;;7379793;19;21146;-80
2023/01/20 05:50:43;;;;;;;11.67;8.87;;;0.80;99.90;;;;;;7381214;19;20373;-80
2023/01/20 05:53:08;;;;;;;10.27;7.63;;;0.80;99.90;;;;;;7383777;19;20837;-79
2023/01/20 05:55:34;;;;;;;10.53;8.23;;;0.80;99.90;;;;;;7383658;19;20308;-80
2023/01/20 05:58:01;;;;;;;9.68;8.13;;;0.70;99.90;;;;;;7381595;19;21398;-78
2023/01/20 06:00:27;;;;;;;8.87;6.70;;;0.80;99.90;;;;;;7383184;19;20355;-80
2023/01/20 06:02:52;;;;;;;8.17;6.73;;;0.80;99.90;;;;;;7384406;19;20316;-78
2023/01/20 06:05:18;;;;;;;9.23;7.70;;;0.90;99.90;;;;;;7383481;19;20971;-79
2023/01/20 06:10:39;;;;;;;8.55;6.75;;;1.10;99.90;;;;;;7400642;19;20623;-83
2023/01/20 06:13:05;;;;;;;11.32;8.70;;;1.10;99.90;;;;;;7387536;19;20320;-80
2023/01/20 06:15:30;;;;;;;8.63;7.35;;;1.10;99.90;;;;;;7382018;19;20335;-79
2023/01/20 06:17:56;;;;;;;10.17;8.00;;;1.10;99.90;;;;;;7390136;19;20329;-81
2023/01/20 06:20:21;;;;;;;10.55;8.15;;;1.10;99.90;;;;;;7389907;19;20338;-79
2023/01/20 06:22:47;;;;;;;10.60;7.80;;;1.00;99.90;;;;;;7390229;19;20321;-80
2023/01/20 06:25:13;;;;;;;11.55;9.23;;;1.00;99.90;;;;;;7389707;19;20336;-85
2023/01/20 06:27:38;;;;;;;9.93;8.13;;;1.00;99.90;;;;;;7387921;19;20691;-82
2023/01/20 06:30:05;;;;;;;8.27;6.93;;;0.90;99.90;;;;;;7390207;19;20316;-80
2023/01/20 06:32:31;;;;;;;9.35;7.65;;;0.90;99.90;;;;;;7390900;19;20333;-82
2023/01/20 06:34:56;;;;;;;9.00;7.57;;;0.90;99.90;;;;;;7388655;19;20313;-81
2023/01/20 06:37:22;;;;;;;9.93;7.97;;;0.90;99.90;;;;;;7388532;19;20407;-82
2023/01/20 06:39:47;;;;;;;8.90;7.40;;;1.00;99.90;;;;;;7387395;19;20336;-89
2023/01/20 06:42:13;;;;;;;11.95;8.77;;;0.90;99.90;;;;;;7386322;19;20304;-80
2023/01/20 06:44:39;;;;;;;14.23;9.80;;;0.90;99.90;;;;;;7386630;19;20780;-81
2023/01/20 06:47:04;;;;;;;12.68;9.32;;;0.80;99.90;;;;;;7388073;19;21261;-84
2023/01/20 06:49:32;;;;;;;9.87;8.70;;;0.70;99.90;;;;;;7385143;19;20329;-81
2023/01/20 06:51:58;;;;;;;10.43;7.45;;;0.70;99.90;;;;;;7389278;19;20328;-82
2023/01/20 06:54:23;;;;;;;10.17;7.77;;;0.80;99.90;;;;;;7389142;19;20344;-83
2023/01/20 06:56:49;;;;;;;10.57;7.57;;;0.80;99.90;;;;;;7388408;19;20321;-81
2023/01/20 06:59:14;;;;;;;10.07;7.78;;;0.80;99.90;;;;;;7388274;19;20354;-84
2023/01/20 07:01:40;;;;;;;12.63;9.47;;;0.80;99.90;;;;;;7384750;19;20330;-80
2023/01/20 07:04:07;;;;;;;12.80;9.38;;;0.70;99.90;;;;;;7389372;19;20902;-81
2023/01/20 07:06:37;;;;;;;11.52;8.20;;;0.60;99.90;;;;;;7389451;19;20305;-80
2023/01/20 07:09:04;;;;;;;10.75;8.02;;;0.60;99.90;;;;;;7382948;19;20312;-79
2023/01/20 07:11:30;;;;;;;11.20;8.98;;;0.60;99.90;;;;;;7377633;19;20329;-79
2023/01/20 07:48:47;;;;;;;10.05;6.88;;;0.10;99.90;;;;;;7382883;19;20344;-78
2023/01/20 07:51:13;;;;;;;7.83;6.17;;;0.20;99.90;;;;;;7378654;19;20347;-83
2023/01/20 07:53:42;;;;;;;10.30;7.50;;;0.30;99.90;;;;;;7383678;19;20308;-85
2023/01/20 07:56:12;;;;;;;13.40;9.63;;;0.40;99.90;;;;;;7390548;19;20384;-79
2023/01/20 07:58:38;;;;;;;10.32;8.18;;;0.40;99.90;;;;;;7383530;19;20315;-80
2023/01/20 08:01:11;;;;;;;9.25;7.07;;;0.50;99.90;;;;;;7385451;19;20380;-79
2023/01/20 08:03:37;;;;;;;10.57;7.30;;;0.40;99.90;;;;;;7283338;19;2005788;-80
2023/01/20 08:06:06;;;;;;;8.80;7.18;;;0.40;99.90;;;;;;7399195;19;20301;-84
2023/01/20 08:08:32;;;;;;;9.57;7.32;;;0.50;99.90;;;;;;7397195;19;20315;-79
2023/01/20 08:11:00;;;;;;;8.75;7.32;;;0.60;99.90;;;;;;7395588;19;20663;-80
2023/01/20 08:13:26;;;;;;;14.02;10.20;;;0.60;99.90;;;;;;7391411;19;20316;-85
2023/01/20 08:15:51;;;;;;;8.80;7.10;;;0.50;99.90;;;;;;7395418;19;20302;-86
2023/01/20 08:18:17;;;;;;;12.02;8.23;;;0.50;99.90;;;;;;7396742;19;20339;-83
2023/01/20 08:20:42;;;;;;;8.77;6.90;;;0.60;99.90;;;;;;7400037;19;20324;-84
2023/01/20 08:23:08;;;;;;;8.63;6.60;;;0.60;99.90;;;;;;7392229;19;20317;-81
2023/01/20 08:25:33;;;;;;;12.10;9.10;;;0.60;99.90;;;;;;7397149;19;20311;-83
2023/01/20 08:27:59;;;;;;;9.98;7.30;;;0.60;99.90;;;;;;7393552;19;20677;-78
2023/01/20 08:30:37;;;;;;;10.40;7.17;;;0.70;99.90;;;;;;7388253;19;20659;-83
2023/01/20 08:33:04;;;;;;;8.87;6.60;;;0.60;99.90;;;;;;7389145;19;20422;-84
2023/01/20 08:35:30;;;;;;;8.15;6.45;;;0.60;99.90;;;;;;7388767;19;20320;-81
2023/01/20 08:37:55;;;;;;;8.43;6.88;;;0.60;99.90;;;;;;7388971;19;20363;-80
2023/01/20 08:40:21;;;;;;;10.50;7.17;;;0.70;99.90;;;;;;7390486;19;20683;-81
2023/01/20 08:42:47;;;;;;;10.10;7.07;;;0.60;99.90;;;;;;7389004;19;20320;-81
2023/01/20 08:45:12;;;;;;;8.60;6.57;;;0.70;99.90;;;;;;7386052;19;20333;-81
2023/01/20 08:47:43;;;;;;;10.18;7.47;;;0.70;99.90;;;;;;7387519;19;20345;-79
2023/01/20 08:50:09;;;;;;;11.65;7.75;;;0.60;99.90;;;;;;7388506;19;20313;-80
2023/01/20 08:52:36;;;;;;;9.63;7.37;;;0.50;99.90;;;;;;7391082;19;20317;-85
2023/01/20 08:55:02;;;;;;;8.35;6.50;;;0.50;99.90;;;;;;7387730;19;20320;-80
2023/01/20 08:57:27;;;;;;;9.98;6.80;;;0.40;99.90;;;;;;7388879;19;20321;-80
2023/01/20 08:59:53;;;;;;;10.82;7.60;;;0.50;99.90;;;;;;7384522;19;20426;-80
2023/01/20 09:02:19;;;;;;;8.45;6.60;;;0.60;99.90;;;;;;7382334;19;20320;-81
2023/01/20 09:04:48;;;;;;;8.57;6.73;;;0.60;99.90;;;;;;7383589;19;21170;-80
2023/01/20 09:07:14;;;;;;;9.18;7.07;;;0.60;99.90;;;;;;7385818;19;20317;-78
2023/01/20 09:09:39;;;;;;;9.13;6.67;;;0.60;99.90;;;;;;7384095;19;20348;-80
2023/01/20 09:12:05;;;;;;;10.77;7.67;;;0.70;99.90;;;;;;7387001;19;20359;-85
2023/01/20 09:14:30;;;;;;;7.70;6.20;;;0.70;99.90;;;;;;7384394;19;20659;-78
2023/01/20 09:16:56;;;;;;;9.10;6.60;;;0.80;99.90;;;;;;7386579;19;20320;-79
2023/01/20 09:19:22;;;;;;;8.48;6.75;;;0.80;99.90;;;;;;7384058;19;20316;-84
2023/01/20 09:21:47;;;;;;;10.23;6.67;;;0.80;99.90;;;;;;7383948;19;20684;-81
2023/01/20 09:24:13;;;;;;;10.40;7.85;;;0.90;99.90;;;;;;7383166;19;20400;-82
2023/01/20 09:26:40;;;;;;;8.37;7.23;;;0.90;99.90;;;;;;7386079;19;20822;-81
2023/01/20 09:29:16;;;;;;;13.15;8.60;;;0.80;99.90;;;;;;7383018;19;20316;-79
2023/01/20 09:31:44;;;;;;;12.67;7.90;;;0.60;99.90;;;;;;7293597;19;2004488;-78
2023/01/20 09:34:10;;;;;;;11.45;8.25;;;0.40;99.90;;;;;;7387931;19;20333;-82
2023/01/20 09:36:36;;;;;;;9.73;7.45;;;0.40;99.90;;;;;;7392380;19;20308;-88
2023/01/20 09:44:51;;;;;;;9.55;7.28;;;0.60;99.90;;;;;;7385345;19;20309;-83
2023/01/20 09:47:22;;;;;;;9.80;7.73;;;0.70;99.90;;;;;;7285611;19;2017114;-80
2023/01/20 09:53:07;;;;;;;13.33;9.60;;;0.80;99.90;;;;;;7284511;19;2004374;-78
2023/01/20 09:55:51;;;;;;;11.85;8.85;;;0.70;99.90;;;;;;7385563;19;20320;-80
2023/01/20 09:58:35;;;;;;;11.53;7.63;;;0.70;99.90;;;;;;7283262;19;2004250;-80
2023/01/20 10:01:17;;;;;;;11.38;8.43;;;0.80;99.90;;;;;;7383349;19;20336;-80
2023/01/20 10:03:54;;;;;;;10.93;7.57;;;0.90;99.90;;;;;;7282684;19;2004523;-79
2023/01/20 10:06:33;;;;;;;10.43;7.43;;;0.90;99.90;;;;;;7388403;19;20354;-80
2023/01/20 10:09:04;;;;;;;11.70;7.87;;;0.90;99.90;;;;;;7387083;19;20316;-80
2023/01/20 10:11:34;;;;;;;11.02;7.40;;;0.90;99.90;;;;;;7388399;19;21327;-79
2023/01/20 10:14:12;;;;;;;11.33;7.27;;;0.90;99.90;;;;;;7386394;19;20321;-83
2023/01/20 10:16:44;;;;;;;9.35;7.05;;;1.00;99.90;;;;;;7282802;19;2004504;-82
2023/01/20 10:19:14;;;;;;;9.43;7.43;;;1.00;99.90;;;;;;7384996;19;20373;-79
2023/01/20 10:21:46;;;;;;;8.23;6.80;;;1.10;99.90;;;;;;7384419;19;20320;-81
2023/01/20 10:24:17;;;;;;;9.77;7.20;;;1.00;99.90;;;;;;7384087;19;20328;-81
2023/01/20 10:26:57;;;;;;;9.40;7.00;;;1.00;99.90;;;;;;7384557;19;20328;-79
2023/01/20 10:29:35;;;;;;;10.18;7.55;;;0.90;99.90;;;;;;7381921;19;20411;-77
2023/01/20 10:32:01;;;;;;;8.90;6.57;;;0.90;99.90;;;;;;7381537;19;20308;-79
2023/01/20 10:37:57;;;;;;;10.70;7.97;;;1.00;99.90;;;;;;7414083;19;20344;-87
2023/01/20 10:40:42;;;;;;;9.68;7.20;;;1.10;99.90;;;;;;7407918;19;20332;-80
2023/01/20 10:43:12;;;;;;;7.53;6.37;;;1.10;99.90;;;;;;7284569;19;2004335;-78
2023/01/20 10:45:56;;;;;;;7.15;6.38;;;1.10;99.90;;;;;;7385755;19;20319;-81
2023/01/20 10:48:27;;;;;;;14.02;8.32;;;1.20;99.90;;;;;;7281755;19;2004440;-80
2023/01/20 10:51:02;;;;;;;8.90;6.82;;;1.10;99.90;;;;;;7384360;19;20316;-79
2023/01/20 10:53:34;;;;;;;10.05;7.65;;;1.20;99.90;;;;;;7387717;19;20312;-81
2023/01/20 10:56:12;;;;;;;10.75;8.32;;;1.20;99.90;;;;;;7388136;19;21271;-80
2023/01/20 10:58:39;;;;;;;12.15;8.32;;;1.10;99.90;;;;;;7280994;19;2004325;-82
2023/01/20 11:01:08;;;;;;;10.18;7.82;;;0.70;99.90;;;;;;7386363;19;20300;-82
2023/01/20 11:03:41;;;;;;;10.25;7.70;;;0.70;99.90;;;;;;7385691;19;20316;-79
2023/01/20 11:06:22;;;;;;;10.50;6.82;;;0.70;99.90;;;;;;7385418;19;20320;-82
2023/01/20 11:08:51;;;;;;;11.65;8.18;;;0.90;99.90;;;;;;7279665;19;2026227;-82
2023/01/20 11:11:19;;;;;;;10.33;7.20;;;0.50;99.90;;;;;;7384643;19;20320;-79
2023/01/20 11:13:45;;;;;;;9.45;6.32;;;0.50;99.90;;;;;;7384423;19;20328;-82
2023/01/20 11:16:16;;;;;;;9.93;7.75;;;0.60;99.90;;;;;;7389210;19;20414;-80
2023/01/20 11:18:41;;;;;;;8.90;6.72;;;0.70;99.90;;;;;;7387996;19;20313;-80
2023/01/20 11:21:08;;;;;;;7.90;6.97;;;0.90;99.90;;;;;;7388183;19;20317;-82
2023/01/20 11:23:38;;;;;;;10.30;7.82;;;1.00;99.90;;;;;;7383181;19;20699;-79
2023/01/20 11:26:08;;;;;;;10.35;7.32;;;1.10;99.90;;;;;;7382460;19;20324;-78
2023/01/20 11:29:06;;;;;;;10.80;7.50;;;1.10;99.90;;;;;;7382418;19;20345;-80
2023/01/20 11:31:36;;;;;;;7.73;5.83;;;1.10;99.90;;;;;;7279946;19;2004158;-81
2023/01/20 11:34:16;;;;;;;8.52;6.35;;;1.10;99.90;;;;;;7381479;19;20696;-78
2023/01/20 11:36:42;;;;;;;9.13;6.82;;;1.20;99.90;;;;;;7286421;19;2004235;-82
2023/01/20 11:39:25;;;;;;;12.13;8.05;;;1.10;99.90;;;;;;7379857;19;20316;-80
2023/01/20 11:42:15;;;;;;;12.10;8.27;;;0.70;99.90;;;;;;7277553;19;2004286;-80
2023/01/20 11:44:44;;;;;;;6.40;5.60;;;0.50;99.90;;;;;;7278612;19;2005221;-81
2023/01/20 11:47:28;;;;;;;10.23;7.40;;;0.60;99.90;;;;;;7383475;19;20774;-82
2023/01/20 11:50:08;;;;;;;8.43;6.60;;;0.80;99.90;;;;;;7382791;19;20323;-83
2023/01/20 11:52:38;;;;;;;8.97;6.70;;;0.90;99.90;;;;;;7382560;19;20305;-87
2023/01/20 11:55:07;;;;;;;8.07;6.20;;;1.20;99.90;;;;;;7392706;19;20380;-84
2023/01/20 11:57:32;;;;;;;7.43;5.97;;;1.20;99.90;;;;;;7392019;19;20316;-78
2023/01/20 11:59:58;;;;;;;8.80;6.90;;;1.40;99.90;;;;;;7388407;19;20351;-81
2023/01/20 12:02:24;;;;;;;7.17;6.00;;;1.50;99.90;;;;;;7385178;19;20379;-81
2023/01/20 12:05:11;;;;;;;7.90;6.50;;;1.60;99.90;;;;;;7387223;19;20312;-85
2023/01/20 12:07:47;;;;;;;9.02;6.32;;;1.70;99.90;;;;;;7386748;19;21291;-86
2023/01/20 12:10:26;;;;;;;10.85;7.72;;;1.70;99.90;;;;;;7282676;19;2016448;-81
2023/01/20 12:13:10;;;;;;;9.55;7.40;;;1.50;99.90;;;;;;7384523;19;20351;-84
2023/01/20 12:15:40;;;;;;;9.30;6.45;;;1.20;99.90;;;;;;7384720;19;20392;-82
2023/01/20 12:18:46;;;;;;;9.38;6.75;;;1.30;99.90;;;;;;7384483;19;20414;-80
2023/01/20 12:21:19;;;;;;;8.23;6.28;;;1.20;99.90;;;;;;7179941;19;2004438;-81
2023/01/20 12:23:55;;;;;;;8.20;6.40;;;1.20;99.90;;;;;;7384188;19;20842;-89
2023/01/20 12:26:21;;;;;;;6.75;6.00;;;1.20;99.90;;;;;;7387189;19;20332;-85
2023/01/20 12:28:53;;;;;;;9.55;6.97;;;1.20;99.90;;;;;;7386193;19;20352;-89
2023/01/20 12:31:19;;;;;;;11.57;7.72;;;1.20;99.90;;;;;;7385635;19;20360;-82
2023/01/20 12:33:49;;;;;;;8.18;6.35;;;1.20;99.90;;;;;;7383527;19;20333;-85
2023/01/20 12:36:29;;;;;;;9.05;7.20;;;1.10;99.90;;;;;;7386597;19;20329;-81
2023/01/20 12:39:10;;;;;;;8.75;6.47;;;1.00;99.90;;;;;;7384487;19;20853;-84
2023/01/20 12:41:47;;;;;;;10.23;7.47;;;1.00;99.90;;;;;;7391382;19;20309;-80
2023/01/20 12:44:23;;;;;;;9.65;6.18;;;1.00;99.90;;;;;;7288534;19;2004349;-86
2023/01/20 12:46:51;;;;;;;8.50;6.32;;;1.10;99.90;;;;;;7391437;19;20312;-82
2023/01/20 12:49:35;;;;;;;10.07;6.50;;;1.10;99.90;;;;;;7390802;19;20309;-85
2023/01/20 12:52:04;;;;;;;10.30;7.03;;;1.20;99.90;;;;;;7392659;19;20316;-82
2023/01/20 12:54:48;;;;;;;13.05;8.18;;;1.30;99.90;;;;;;7390213;19;21000;-86
2023/01/20 12:57:20;;;;;;;7.63;6.60;;;1.20;99.90;;;;;;7289015;19;2017529;-90
2023/01/20 12:59:54;;;;;;;9.05;7.55;;;1.30;99.90;;;;;;7388645;19;20355;-86
2023/01/20 13:02:40;;;;;;;11.03;8.33;;;1.20;99.90;;;;;;7388828;19;20752;-84
2023/01/20 13:05:26;;;;;;;11.52;8.10;;;1.10;99.90;;;;;;7389220;19;20376;-85
2023/01/20 13:07:56;;;;;;;10.38;7.28;;;1.10;99.90;;;;;;7286164;19;2004633;-81
2023/01/20 13:10:45;;;;;;;12.50;8.80;;;1.10;99.90;;;;;;7390577;19;20325;-81
2023/01/20 13:13:20;;;;;;;9.50;7.47;;;1.10;99.90;;;;;;7285345;19;2019930;-89
2023/01/20 13:15:51;;;;;;;13.40;8.43;;;1.10;99.90;;;;;;7388387;19;20329;-82
2023/01/20 13:18:34;;;;;;;9.97;8.00;;;1.20;99.90;;;;;;7381310;19;20887;-85
2023/01/20 13:20:59;;;;;;;9.82;7.63;;;1.20;99.90;;;;;;7389255;19;20369;-84
2023/01/20 13:23:32;;;;;;;11.00;7.75;;;1.10;99.90;;;;;;7387000;19;20370;-85
2023/01/20 13:25:58;;;;;;;11.27;7.85;;;1.20;99.90;;;;;;7388396;19;20349;-89
2023/01/20 13:28:25;;;;;;;13.35;8.98;;;1.30;99.90;;;;;;7387932;19;20344;-83
2023/01/20 13:30:53;;;;;;;12.63;8.80;;;1.30;99.90;;;;;;7385759;19;20337;-84
2023/01/20 13:33:33;;;;;;;17.17;9.95;;;1.30;99.90;;;;;;7386752;19;20686;-79
2023/01/20 13:37:01;;;;;;;12.88;9.45;;;0.90;99.90;;;;;;7407282;19;20312;-88
2023/01/20 13:39:54;;;;;;;16.63;11.03;;;0.60;99.90;;;;;;7418266;19;20358;-89
2023/01/20 13:42:26;;;;;;;15.75;11.13;;;0.70;99.90;;;;;;7408405;19;20341;-79
2023/01/20 13:45:27;;;;;;;10.07;8.00;;;0.60;99.90;;;;;;7409152;19;20385;-81
2023/01/20 13:48:05;;;;;;;13.98;9.68;;;0.50;99.90;;;;;;7306333;19;2004759;-83
2023/01/20 13:50:39;;;;;;;12.80;8.27;;;0.30;99.90;;;;;;7411900;19;20361;-86
2023/01/20 13:53:09;;;;;;;12.00;8.75;;;0.40;99.90;;;;;;7406007;19;20332;-85
2023/01/20 13:55:42;;;;;;;10.32;7.82;;;0.40;99.90;;;;;;7402876;19;20309;-84